Terminal Aerodrome Forecast
Issued by NWS

Home | Current Version | Previous Version | Text Only | Print | Product List | Glossary Off
Versions: 1 2 3 4 5 6 7 8 9 10 11 12 13 14 15 16 17 18 19

000
FTUS43 KMPX 241600 AAB
TAFAXN
TAF AMD
KAXN 241634Z 2417/2512 32007KT 1/2SM FZFG OVC002
     FM241800 32006KT 3SM BR OVC005
      TEMPO 2418/2419 3/4SM BR
     FM242100 27006KT P6SM SCT007 OVC012
     FM250500 20007KT P6SM SCT015 OVC070
     FM250900 22005KT P6SM OVC015=

USA.gov is the U.S. government's official web portal to all federal, state and local government web resources and services.